sensor_id;sensor_type;location;lat;lon;timestamp;P1;durP1;ratioP1;P2;durP2;ratioP2
20417;SDS011;10368;51.436;6.774;2023-09-30T00:00:47;13.18;;;5.35;;
20417;SDS011;10368;51.436;6.774;2023-09-30T00:03:14;15.98;;;4.90;;
20417;SDS011;10368;51.436;6.774;2023-09-30T00:05:42;10.45;;;4.75;;
20417;SDS011;10368;51.436;6.774;2023-09-30T00:08:09;16.30;;;4.97;;
20417;SDS011;10368;51.436;6.774;2023-09-30T00:10:37;12.95;;;5.57;;
20417;SDS011;10368;51.436;6.774;2023-09-30T00:13:04;10.50;;;4.28;;
20417;SDS011;10368;51.436;6.774;2023-09-30T00:15:33;8.55;;;4.80;;
20417;SDS011;10368;51.436;6.774;2023-09-30T00:18:00;10.53;;;4.07;;
20417;SDS011;10368;51.436;6.774;2023-09-30T00:20:28;9.63;;;4.90;;
20417;SDS011;10368;51.436;6.774;2023-09-30T00:22:55;7.70;;;4.60;;
20417;SDS011;10368;51.436;6.774;2023-09-30T00:25:22;12.18;;;5.43;;
20417;SDS011;10368;51.436;6.774;2023-09-30T00:27:50;10.32;;;4.63;;
20417;SDS011;10368;51.436;6.774;2023-09-30T00:30:17;12.63;;;5.47;;
20417;SDS011;10368;51.436;6.774;2023-09-30T00:32:44;11.13;;;5.13;;
20417;SDS011;10368;51.436;6.774;2023-09-30T00:35:13;13.18;;;4.72;;
20417;SDS011;10368;51.436;6.774;2023-09-30T00:37:40;13.63;;;5.53;;
20417;SDS011;10368;51.436;6.774;2023-09-30T00:40:08;13.00;;;5.00;;
20417;SDS011;10368;51.436;6.774;2023-09-30T00:42:40;15.43;;;4.55;;
20417;SDS011;10368;51.436;6.774;2023-09-30T00:45:07;11.45;;;4.55;;
20417;SDS011;10368;51.436;6.774;2023-09-30T00:47:38;11.80;;;5.65;;
20417;SDS011;10368;51.436;6.774;2023-09-30T00:50:06;8.07;;;4.85;;
20417;SDS011;10368;51.436;6.774;2023-09-30T00:52:36;12.27;;;6.32;;
20417;SDS011;10368;51.436;6.774;2023-09-30T00:55:05;18.48;;;6.38;;
20417;SDS011;10368;51.436;6.774;2023-09-30T00:57:37;16.67;;;6.53;;
20417;SDS011;10368;51.436;6.774;2023-09-30T01:00:05;12.85;;;5.25;;
20417;SDS011;10368;51.436;6.774;2023-09-30T01:02:39;17.23;;;7.00;;
20417;SDS011;10368;51.436;6.774;2023-09-30T01:05:08;10.20;;;5.68;;
20417;SDS011;10368;51.436;6.774;2023-09-30T01:07:35;13.25;;;6.38;;
20417;SDS011;10368;51.436;6.774;2023-09-30T01:10:04;12.95;;;6.03;;
20417;SDS011;10368;51.436;6.774;2023-09-30T01:12:32;10.52;;;5.10;;
20417;SDS011;10368;51.436;6.774;2023-09-30T01:15:00;10.75;;;6.22;;
20417;SDS011;10368;51.436;6.774;2023-09-30T01:17:33;11.73;;;5.70;;
20417;SDS011;10368;51.436;6.774;2023-09-30T01:20:01;12.43;;;5.88;;
20417;SDS011;10368;51.436;6.774;2023-09-30T01:22:33;13.60;;;6.80;;
20417;SDS011;10368;51.436;6.774;2023-09-30T01:25:00;12.23;;;6.75;;
20417;SDS011;10368;51.436;6.774;2023-09-30T01:27:28;14.57;;;6.20;;
20417;SDS011;10368;51.436;6.774;2023-09-30T01:29:56;12.77;;;6.15;;
20417;SDS011;10368;51.436;6.774;2023-09-30T01:32:24;12.67;;;5.63;;
20417;SDS011;10368;51.436;6.774;2023-09-30T01:34:51;17.00;;;6.88;;
20417;SDS011;10368;51.436;6.774;2023-09-30T01:37:19;36.28;;;6.45;;
20417;SDS011;10368;51.436;6.774;2023-09-30T01:39:47;11.82;;;6.15;;
20417;SDS011;10368;51.436;6.774;2023-09-30T01:42:16;8.55;;;5.47;;
20417;SDS011;10368;51.436;6.774;2023-09-30T01:44:44;11.70;;;5.72;;
20417;SDS011;10368;51.436;6.774;2023-09-30T01:47:11;10.13;;;5.47;;
20417;SDS011;10368;51.436;6.774;2023-09-30T01:49:38;13.50;;;6.95;;
20417;SDS011;10368;51.436;6.774;2023-09-30T01:52:05;8.55;;;5.88;;
20417;SDS011;10368;51.436;6.774;2023-09-30T01:54:32;10.63;;;6.17;;
20417;SDS011;10368;51.436;6.774;2023-09-30T01:57:00;11.02;;;5.63;;
20417;SDS011;10368;51.436;6.774;2023-09-30T01:59:29;11.13;;;5.87;;
20417;SDS011;10368;51.436;6.774;2023-09-30T02:01:56;10.27;;;5.73;;
20417;SDS011;10368;51.436;6.774;2023-09-30T02:04:23;13.70;;;6.90;;
20417;SDS011;10368;51.436;6.774;2023-09-30T02:06:51;16.20;;;6.20;;
20417;SDS011;10368;51.436;6.774;2023-09-30T02:09:18;11.83;;;6.50;;
20417;SDS011;10368;51.436;6.774;2023-09-30T02:11:45;9.97;;;5.67;;
20417;SDS011;10368;51.436;6.774;2023-09-30T02:14:13;11.45;;;6.20;;
20417;SDS011;10368;51.436;6.774;2023-09-30T02:16:40;14.20;;;6.13;;
20417;SDS011;10368;51.436;6.774;2023-09-30T02:19:07;15.57;;;6.30;;
20417;SDS011;10368;51.436;6.774;2023-09-30T02:21:37;15.53;;;6.93;;
20417;SDS011;10368;51.436;6.774;2023-09-30T02:24:05;14.00;;;6.63;;
20417;SDS011;10368;51.436;6.774;2023-09-30T02:26:32;9.57;;;6.10;;
20417;SDS011;10368;51.436;6.774;2023-09-30T02:29:00;16.80;;;7.23;;
20417;SDS011;10368;51.436;6.774;2023-09-30T02:31:27;12.60;;;6.13;;
20417;SDS011;10368;51.436;6.774;2023-09-30T02:33:54;15.63;;;6.43;;
20417;SDS011;10368;51.436;6.774;2023-09-30T02:36:22;14.83;;;6.23;;
20417;SDS011;10368;51.436;6.774;2023-09-30T02:38:49;12.83;;;6.47;;
20417;SDS011;10368;51.436;6.774;2023-09-30T02:41:16;12.60;;;5.50;;
20417;SDS011;10368;51.436;6.774;2023-09-30T02:43:44;9.70;;;5.70;;
20417;SDS011;10368;51.436;6.774;2023-09-30T02:46:14;10.85;;;5.78;;
20417;SDS011;10368;51.436;6.774;2023-09-30T02:48:41;13.73;;;5.93;;
20417;SDS011;10368;51.436;6.774;2023-09-30T02:51:09;12.93;;;6.33;;
20417;SDS011;10368;51.436;6.774;2023-09-30T02:53:37;11.23;;;5.37;;
20417;SDS011;10368;51.436;6.774;2023-09-30T02:56:04;9.10;;;5.33;;
20417;SDS011;10368;51.436;6.774;2023-09-30T02:58:32;11.87;;;6.30;;
20417;SDS011;10368;51.436;6.774;2023-09-30T03:00:59;15.37;;;6.27;;
20417;SDS011;10368;51.436;6.774;2023-09-30T03:03:26;13.73;;;6.77;;
20417;SDS011;10368;51.436;6.774;2023-09-30T03:05:54;12.83;;;5.83;;
20417;SDS011;10368;51.436;6.774;2023-09-30T03:08:21;12.37;;;6.07;;
20417;SDS011;10368;51.436;6.774;2023-09-30T03:10:48;11.27;;;6.23;;
20417;SDS011;10368;51.436;6.774;2023-09-30T03:13:15;11.73;;;6.07;;
20417;SDS011;10368;51.436;6.774;2023-09-30T03:15:44;11.73;;;5.77;;
20417;SDS011;10368;51.436;6.774;2023-09-30T03:18:12;9.23;;;5.27;;
20417;SDS011;10368;51.436;6.774;2023-09-30T03:20:40;11.90;;;6.00;;
20417;SDS011;10368;51.436;6.774;2023-09-30T03:23:09;11.33;;;6.10;;
20417;SDS011;10368;51.436;6.774;2023-09-30T03:25:37;12.30;;;6.10;;
20417;SDS011;10368;51.436;6.774;2023-09-30T03:28:05;12.27;;;5.47;;
20417;SDS011;10368;51.436;6.774;2023-09-30T03:30:32;13.27;;;6.33;;
20417;SDS011;10368;51.436;6.774;2023-09-30T03:33:00;13.23;;;5.60;;
20417;SDS011;10368;51.436;6.774;2023-09-30T03:35:31;17.20;;;5.40;;
20417;SDS011;10368;51.436;6.774;2023-09-30T03:37:58;12.10;;;5.73;;
20417;SDS011;10368;51.436;6.774;2023-09-30T03:40:28;9.83;;;4.53;;
20417;SDS011;10368;51.436;6.774;2023-09-30T03:43:00;14.93;;;5.83;;
20417;SDS011;10368;51.436;6.774;2023-09-30T03:45:27;13.03;;;5.23;;
20417;SDS011;10368;51.436;6.774;2023-09-30T03:47:54;11.87;;;5.40;;
20417;SDS011;10368;51.436;6.774;2023-09-30T03:50:21;9.60;;;5.00;;
20417;SDS011;10368;51.436;6.774;2023-09-30T03:52:50;13.23;;;5.50;;
20417;SDS011;10368;51.436;6.774;2023-09-30T03:55:18;13.40;;;5.60;;
20417;SDS011;10368;51.436;6.774;2023-09-30T03:57:48;12.63;;;5.27;;
20417;SDS011;10368;51.436;6.774;2023-09-30T04:00:17;13.63;;;6.97;;
20417;SDS011;10368;51.436;6.774;2023-09-30T04:02:47;13.03;;;6.07;;
20417;SDS011;10368;51.436;6.774;2023-09-30T04:05:17;12.07;;;6.23;;
20417;SDS011;10368;51.436;6.774;2023-09-30T04:07:45;10.43;;;5.33;;
20417;SDS011;10368;51.436;6.774;2023-09-30T04:10:13;8.60;;;5.20;;
20417;SDS011;10368;51.436;6.774;2023-09-30T04:12:41;9.03;;;5.73;;
20417;SDS011;10368;51.436;6.774;2023-09-30T04:15:08;16.37;;;5.77;;
20417;SDS011;10368;51.436;6.774;2023-09-30T04:17:38;11.87;;;5.50;;
20417;SDS011;10368;51.436;6.774;2023-09-30T04:20:07;11.73;;;6.60;;
20417;SDS011;10368;51.436;6.774;2023-09-30T04:22:38;13.43;;;6.57;;
20417;SDS011;10368;51.436;6.774;2023-09-30T04:25:05;11.27;;;5.47;;
20417;SDS011;10368;51.436;6.774;2023-09-30T04:27:35;14.40;;;7.83;;
20417;SDS011;10368;51.436;6.774;2023-09-30T04:30:05;10.10;;;5.80;;
20417;SDS011;10368;51.436;6.774;2023-09-30T04:32:37;11.53;;;6.50;;
20417;SDS011;10368;51.436;6.774;2023-09-30T04:35:05;9.73;;;5.90;;
20417;SDS011;10368;51.436;6.774;2023-09-30T04:37:34;11.50;;;6.53;;
20417;SDS011;10368;51.436;6.774;2023-09-30T04:40:06;12.90;;;6.23;;
20417;SDS011;10368;51.436;6.774;2023-09-30T04:42:42;12.93;;;6.30;;
20417;SDS011;10368;51.436;6.774;2023-09-30T04:45:14;21.63;;;7.17;;
20417;SDS011;10368;51.436;6.774;2023-09-30T04:47:47;16.30;;;8.37;;
20417;SDS011;10368;51.436;6.774;2023-09-30T04:50:16;11.30;;;7.33;;
20417;SDS011;10368;51.436;6.774;2023-09-30T04:52:44;14.60;;;6.87;;
20417;SDS011;10368;51.436;6.774;2023-09-30T04:55:12;14.33;;;6.70;;
20417;SDS011;10368;51.436;6.774;2023-09-30T04:57:43;13.97;;;7.37;;
20417;SDS011;10368;51.436;6.774;2023-09-30T05:00:12;12.43;;;6.60;;
20417;SDS011;10368;51.436;6.774;2023-09-30T05:02:39;8.63;;;6.40;;
20417;SDS011;10368;51.436;6.774;2023-09-30T05:05:09;14.83;;;6.53;;
20417;SDS011;10368;51.436;6.774;2023-09-30T05:07:37;15.20;;;8.23;;
20417;SDS011;10368;51.436;6.774;2023-09-30T05:10:05;14.53;;;8.07;;
20417;SDS011;10368;51.436;6.774;2023-09-30T05:12:36;13.07;;;7.10;;
20417;SDS011;10368;51.436;6.774;2023-09-30T05:15:07;16.10;;;6.70;;
20417;SDS011;10368;51.436;6.774;2023-09-30T05:17:34;14.83;;;7.13;;
20417;SDS011;10368;51.436;6.774;2023-09-30T05:20:02;12.23;;;7.30;;
20417;SDS011;10368;51.436;6.774;2023-09-30T05:22:33;17.10;;;7.77;;
20417;SDS011;10368;51.436;6.774;2023-09-30T05:25:01;12.73;;;7.40;;
20417;SDS011;10368;51.436;6.774;2023-09-30T05:27:33;17.13;;;7.57;;
20417;SDS011;10368;51.436;6.774;2023-09-30T05:30:00;12.63;;;6.77;;
20417;SDS011;10368;51.436;6.774;2023-09-30T05:32:30;14.27;;;7.37;;
20417;SDS011;10368;51.436;6.774;2023-09-30T05:34:57;14.30;;;7.57;;
20417;SDS011;10368;51.436;6.774;2023-09-30T05:37:25;14.07;;;6.90;;
20417;SDS011;10368;51.436;6.774;2023-09-30T05:39:52;17.60;;;8.87;;
20417;SDS011;10368;51.436;6.774;2023-09-30T05:42:19;14.87;;;7.07;;
20417;SDS011;10368;51.436;6.774;2023-09-30T05:44:48;11.90;;;7.80;;
20417;SDS011;10368;51.436;6.774;2023-09-30T05:47:15;13.07;;;8.43;;
20417;SDS011;10368;51.436;6.774;2023-09-30T05:49:42;14.50;;;7.93;;
20417;SDS011;10368;51.436;6.774;2023-09-30T05:52:10;14.03;;;8.77;;
20417;SDS011;10368;51.436;6.774;2023-09-30T05:54:39;18.70;;;7.23;;
20417;SDS011;10368;51.436;6.774;2023-09-30T05:57:06;13.17;;;8.37;;
20417;SDS011;10368;51.436;6.774;2023-09-30T05:59:35;12.63;;;8.37;;
20417;SDS011;10368;51.436;6.774;2023-09-30T06:02:02;16.10;;;8.17;;
20417;SDS011;10368;51.436;6.774;2023-09-30T06:04:31;15.93;;;8.33;;
20417;SDS011;10368;51.436;6.774;2023-09-30T06:06:59;19.57;;;8.73;;
20417;SDS011;10368;51.436;6.774;2023-09-30T06:09:27;14.87;;;7.87;;
20417;SDS011;10368;51.436;6.774;2023-09-30T06:11:56;14.10;;;7.73;;
20417;SDS011;10368;51.436;6.774;2023-09-30T06:14:24;16.20;;;8.57;;
20417;SDS011;10368;51.436;6.774;2023-09-30T06:16:54;16.73;;;7.97;;
20417;SDS011;10368;51.436;6.774;2023-09-30T06:19:22;15.33;;;8.20;;
20417;SDS011;10368;51.436;6.774;2023-09-30T06:21:49;14.93;;;8.37;;
20417;SDS011;10368;51.436;6.774;2023-09-30T06:24:17;14.23;;;8.43;;
20417;SDS011;10368;51.436;6.774;2023-09-30T06:26:48;16.23;;;8.67;;
20417;SDS011;10368;51.436;6.774;2023-09-30T06:29:15;16.97;;;9.37;;
20417;SDS011;10368;51.436;6.774;2023-09-30T06:31:42;17.77;;;8.87;;
20417;SDS011;10368;51.436;6.774;2023-09-30T06:34:09;13.03;;;8.27;;
20417;SDS011;10368;51.436;6.774;2023-09-30T06:36:37;19.10;;;9.63;;
20417;SDS011;10368;51.436;6.774;2023-09-30T06:39:04;16.77;;;8.70;;
20417;SDS011;10368;51.436;6.774;2023-09-30T06:41:32;17.20;;;8.90;;
20417;SDS011;10368;51.436;6.774;2023-09-30T06:43:59;19.00;;;9.30;;
20417;SDS011;10368;51.436;6.774;2023-09-30T06:46:26;20.10;;;10.40;;
20417;SDS011;10368;51.436;6.774;2023-09-30T06:48:54;18.13;;;8.70;;
20417;SDS011;10368;51.436;6.774;2023-09-30T06:51:21;18.13;;;9.30;;
20417;SDS011;10368;51.436;6.774;2023-09-30T06:53:49;23.57;;;10.50;;
20417;SDS011;10368;51.436;6.774;2023-09-30T06:56:16;17.60;;;9.63;;
20417;SDS011;10368;51.436;6.774;2023-09-30T06:58:43;18.73;;;10.17;;
20417;SDS011;10368;51.436;6.774;2023-09-30T07:01:14;15.60;;;10.13;;
20417;SDS011;10368;51.436;6.774;2023-09-30T07:03:42;20.93;;;11.00;;
20417;SDS011;10368;51.436;6.774;2023-09-30T07:06:10;23.20;;;14.63;;
20417;SDS011;10368;51.436;6.774;2023-09-30T07:08:40;20.10;;;10.80;;
20417;SDS011;10368;51.436;6.774;2023-09-30T07:11:08;18.50;;;10.73;;
20417;SDS011;10368;51.436;6.774;2023-09-30T07:13:37;21.87;;;11.77;;
20417;SDS011;10368;51.436;6.774;2023-09-30T07:16:04;19.67;;;11.33;;
20417;SDS011;10368;51.436;6.774;2023-09-30T07:18:32;20.90;;;12.10;;
20417;SDS011;10368;51.436;6.774;2023-09-30T07:20:59;25.80;;;12.47;;
20417;SDS011;10368;51.436;6.774;2023-09-30T07:23:29;23.17;;;12.27;;
20417;SDS011;10368;51.436;6.774;2023-09-30T07:25:58;32.37;;;12.47;;
20417;SDS011;10368;51.436;6.774;2023-09-30T07:28:25;23.50;;;12.97;;
20417;SDS011;10368;51.436;6.774;2023-09-30T07:30:52;23.13;;;13.00;;
20417;SDS011;10368;51.436;6.774;2023-09-30T07:33:21;20.20;;;12.27;;
20417;SDS011;10368;51.436;6.774;2023-09-30T07:35:48;16.20;;;12.27;;
20417;SDS011;10368;51.436;6.774;2023-09-30T07:38:15;24.20;;;12.90;;
20417;SDS011;10368;51.436;6.774;2023-09-30T07:40:43;20.47;;;13.17;;
20417;SDS011;10368;51.436;6.774;2023-09-30T07:43:10;19.80;;;13.50;;
20417;SDS011;10368;51.436;6.774;2023-09-30T07:45:39;27.37;;;13.50;;
20417;SDS011;10368;51.436;6.774;2023-09-30T07:48:07;23.17;;;13.93;;
20417;SDS011;10368;51.436;6.774;2023-09-30T07:50:36;23.97;;;14.93;;
20417;SDS011;10368;51.436;6.774;2023-09-30T07:53:05;22.10;;;13.60;;
20417;SDS011;10368;51.436;6.774;2023-09-30T07:55:32;25.17;;;16.02;;
20417;SDS011;10368;51.436;6.774;2023-09-30T07:57:59;25.73;;;14.98;;
20417;SDS011;10368;51.436;6.774;2023-09-30T08:00:27;27.17;;;16.65;;
20417;SDS011;10368;51.436;6.774;2023-09-30T08:02:55;33.30;;;18.05;;
20417;SDS011;10368;51.436;6.774;2023-09-30T08:05:22;30.75;;;17.77;;
20417;SDS011;10368;51.436;6.774;2023-09-30T08:07:49;34.30;;;18.05;;
20417;SDS011;10368;51.436;6.774;2023-09-30T08:10:17;32.83;;;19.75;;
20417;SDS011;10368;51.436;6.774;2023-09-30T08:12:44;33.00;;;17.50;;
20417;SDS011;10368;51.436;6.774;2023-09-30T08:15:16;42.20;;;21.90;;
20417;SDS011;10368;51.436;6.774;2023-09-30T08:17:43;22.33;;;15.85;;
20417;SDS011;10368;51.436;6.774;2023-09-30T08:20:13;25.05;;;15.90;;
20417;SDS011;10368;51.436;6.774;2023-09-30T08:22:43;26.13;;;16.88;;
20417;SDS011;10368;51.436;6.774;2023-09-30T08:25:11;26.45;;;15.90;;
20417;SDS011;10368;51.436;6.774;2023-09-30T08:27:38;27.80;;;16.05;;
20417;SDS011;10368;51.436;6.774;2023-09-30T08:30:06;20.83;;;15.30;;
20417;SDS011;10368;51.436;6.774;2023-09-30T08:32:36;24.95;;;16.30;;
20417;SDS011;10368;51.436;6.774;2023-09-30T08:35:04;25.08;;;15.75;;
20417;SDS011;10368;51.436;6.774;2023-09-30T08:37:33;22.77;;;16.00;;
20417;SDS011;10368;51.436;6.774;2023-09-30T08:40:00;21.13;;;14.95;;
20417;SDS011;10368;51.436;6.774;2023-09-30T08:42:28;26.40;;;17.13;;
20417;SDS011;10368;51.436;6.774;2023-09-30T08:44:59;26.13;;;16.92;;
20417;SDS011;10368;51.436;6.774;2023-09-30T08:47:26;24.80;;;17.50;;
20417;SDS011;10368;51.436;6.774;2023-09-30T08:49:55;25.27;;;17.13;;
20417;SDS011;10368;51.436;6.774;2023-09-30T08:52:26;27.08;;;16.23;;
20417;SDS011;10368;51.436;6.774;2023-09-30T08:54:53;25.15;;;16.98;;
20417;SDS011;10368;51.436;6.774;2023-09-30T08:57:21;23.10;;;16.65;;
20417;SDS011;10368;51.436;6.774;2023-09-30T08:59:48;24.63;;;16.52;;
20417;SDS011;10368;51.436;6.774;2023-09-30T09:02:16;23.67;;;17.08;;
20417;SDS011;10368;51.436;6.774;2023-09-30T09:04:43;29.42;;;17.55;;
20417;SDS011;10368;51.436;6.774;2023-09-30T09:07:11;23.92;;;15.75;;
20417;SDS011;10368;51.436;6.774;2023-09-30T09:09:38;22.50;;;15.13;;
20417;SDS011;10368;51.436;6.774;2023-09-30T09:12:06;19.42;;;15.45;;
20417;SDS011;10368;51.436;6.774;2023-09-30T09:14:39;22.20;;;15.40;;
20417;SDS011;10368;51.436;6.774;2023-09-30T09:17:07;21.00;;;15.80;;
20417;SDS011;10368;51.436;6.774;2023-09-30T09:19:34;25.92;;;17.38;;
20417;SDS011;10368;51.436;6.774;2023-09-30T09:22:03;24.95;;;17.00;;
20417;SDS011;10368;51.436;6.774;2023-09-30T09:24:34;22.70;;;16.85;;
20417;SDS011;10368;51.436;6.774;2023-09-30T09:27:05;31.48;;;16.45;;
20417;SDS011;10368;51.436;6.774;2023-09-30T09:29:33;32.30;;;16.50;;
20417;SDS011;10368;51.436;6.774;2023-09-30T09:32:19;19.20;;;13.52;;
20417;SDS011;10368;51.436;6.774;2023-09-30T09:34:59;21.30;;;13.48;;
20417;SDS011;10368;51.436;6.774;2023-09-30T09:37:27;20.13;;;12.90;;
20417;SDS011;10368;51.436;6.774;2023-09-30T09:39:55;21.25;;;16.35;;
20417;SDS011;10368;51.436;6.774;2023-09-30T09:42:24;18.77;;;13.82;;
20417;SDS011;10368;51.436;6.774;2023-09-30T09:45:02;23.77;;;14.90;;
20417;SDS011;10368;51.436;6.774;2023-09-30T09:47:31;21.75;;;13.40;;
20417;SDS011;10368;51.436;6.774;2023-09-30T09:49:58;20.60;;;14.18;;
20417;SDS011;10368;51.436;6.774;2023-09-30T09:52:26;22.85;;;14.52;;
20417;SDS011;10368;51.436;6.774;2023-09-30T09:54:54;24.15;;;14.13;;
20417;SDS011;10368;51.436;6.774;2023-09-30T09:57:24;18.42;;;13.23;;
20417;SDS011;10368;51.436;6.774;2023-09-30T09:59:52;19.30;;;13.20;;
20417;SDS011;10368;51.436;6.774;2023-09-30T10:02:25;26.60;;;15.07;;
20417;SDS011;10368;51.436;6.774;2023-09-30T10:04:54;18.92;;;14.25;;
20417;SDS011;10368;51.436;6.774;2023-09-30T10:07:27;16.55;;;13.02;;
20417;SDS011;10368;51.436;6.774;2023-09-30T10:09:55;22.50;;;12.88;;
20417;SDS011;10368;51.436;6.774;2023-09-30T10:12:24;18.15;;;12.35;;
20417;SDS011;10368;51.436;6.774;2023-09-30T10:14:52;18.73;;;12.40;;
20417;SDS011;10368;51.436;6.774;2023-09-30T10:17:19;14.73;;;11.18;;
20417;SDS011;10368;51.436;6.774;2023-09-30T10:20:02;13.88;;;10.88;;
20417;SDS011;10368;51.436;6.774;2023-09-30T10:22:31;13.45;;;9.48;;
20417;SDS011;10368;51.436;6.774;2023-09-30T10:24:58;14.75;;;8.55;;
20417;SDS011;10368;51.436;6.774;2023-09-30T10:37:45;8.57;;;5.40;;
20417;SDS011;10368;51.436;6.774;2023-09-30T10:42:55;6.55;;;4.15;;
20417;SDS011;10368;51.436;6.774;2023-09-30T10:50:52;9.57;;;4.50;;
20417;SDS011;10368;51.436;6.774;2023-09-30T10:53:21;5.95;;;4.32;;
20417;SDS011;10368;51.436;6.774;2023-09-30T10:55:53;7.05;;;4.78;;
20417;SDS011;10368;51.436;6.774;2023-09-30T10:58:21;8.88;;;5.18;;
20417;SDS011;10368;51.436;6.774;2023-09-30T11:00:52;6.80;;;4.57;;
20417;SDS011;10368;51.436;6.774;2023-09-30T11:03:20;6.10;;;3.03;;
20417;SDS011;10368;51.436;6.774;2023-09-30T11:05:48;5.22;;;3.60;;
20417;SDS011;10368;51.436;6.774;2023-09-30T11:08:37;6.72;;;4.38;;
20417;SDS011;10368;51.436;6.774;2023-09-30T11:11:04;4.13;;;3.05;;
20417;SDS011;10368;51.436;6.774;2023-09-30T11:13:32;4.75;;;3.08;;
20417;SDS011;10368;51.436;6.774;2023-09-30T11:16:03;6.32;;;4.97;;
20417;SDS011;10368;51.436;6.774;2023-09-30T11:18:36;7.38;;;4.10;;
20417;SDS011;10368;51.436;6.774;2023-09-30T11:23:31;7.90;;;3.90;;
20417;SDS011;10368;51.436;6.774;2023-09-30T11:25:59;5.47;;;3.38;;
20417;SDS011;10368;51.436;6.774;2023-09-30T11:28:35;6.35;;;3.97;;
20417;SDS011;10368;51.436;6.774;2023-09-30T11:31:02;7.97;;;3.90;;
20417;SDS011;10368;51.436;6.774;2023-09-30T11:33:32;5.30;;;3.13;;
20417;SDS011;10368;51.436;6.774;2023-09-30T11:36:04;5.72;;;3.15;;
20417;SDS011;10368;51.436;6.774;2023-09-30T11:38:32;4.47;;;3.50;;
20417;SDS011;10368;51.436;6.774;2023-09-30T11:41:01;5.28;;;3.33;;
20417;SDS011;10368;51.436;6.774;2023-09-30T11:43:33;5.82;;;3.60;;
20417;SDS011;10368;51.436;6.774;2023-09-30T11:46:10;6.18;;;3.28;;
20417;SDS011;10368;51.436;6.774;2023-09-30T11:48:56;4.97;;;3.28;;
20417;SDS011;10368;51.436;6.774;2023-09-30T11:51:27;4.70;;;3.20;;
20417;SDS011;10368;51.436;6.774;2023-09-30T11:53:55;5.75;;;2.85;;
20417;SDS011;10368;51.436;6.774;2023-09-30T11:56:25;6.30;;;3.72;;
20417;SDS011;10368;51.436;6.774;2023-09-30T11:58:56;5.75;;;3.22;;
20417;SDS011;10368;51.436;6.774;2023-09-30T12:01:23;4.60;;;2.53;;
20417;SDS011;10368;51.436;6.774;2023-09-30T12:03:52;6.07;;;3.10;;
20417;SDS011;10368;51.436;6.774;2023-09-30T12:06:24;6.63;;;3.22;;
20417;SDS011;10368;51.436;6.774;2023-09-30T12:08:51;6.25;;;3.50;;
20417;SDS011;10368;51.436;6.774;2023-09-30T12:11:18;8.52;;;4.75;;
20417;SDS011;10368;51.436;6.774;2023-09-30T12:13:45;7.90;;;3.83;;
20417;SDS011;10368;51.436;6.774;2023-09-30T12:16:15;7.78;;;4.72;;
20417;SDS011;10368;51.436;6.774;2023-09-30T12:18:43;5.38;;;3.10;;
20417;SDS011;10368;51.436;6.774;2023-09-30T12:21:11;6.57;;;4.75;;
20417;SDS011;10368;51.436;6.774;2023-09-30T12:23:39;5.25;;;3.45;;
20417;SDS011;10368;51.436;6.774;2023-09-30T12:26:07;6.95;;;3.78;;
20417;SDS011;10368;51.436;6.774;2023-09-30T12:28:41;4.47;;;3.25;;
20417;SDS011;10368;51.436;6.774;2023-09-30T12:31:09;6.25;;;3.60;;
20417;SDS011;10368;51.436;6.774;2023-09-30T12:33:37;7.43;;;3.58;;
20417;SDS011;10368;51.436;6.774;2023-09-30T12:36:04;7.45;;;4.68;;
20417;SDS011;10368;51.436;6.774;2023-09-30T12:38:31;5.95;;;3.65;;
20417;SDS011;10368;51.436;6.774;2023-09-30T12:40:58;7.65;;;3.90;;
20417;SDS011;10368;51.436;6.774;2023-09-30T12:43:27;6.47;;;3.85;;
20417;SDS011;10368;51.436;6.774;2023-09-30T12:45:54;8.73;;;3.67;;
20417;SDS011;10368;51.436;6.774;2023-09-30T12:48:21;4.95;;;3.15;;
20417;SDS011;10368;51.436;6.774;2023-09-30T12:50:48;5.15;;;3.33;;
20417;SDS011;10368;51.436;6.774;2023-09-30T12:53:15;6.03;;;3.80;;
20417;SDS011;10368;51.436;6.774;2023-09-30T12:55:43;7.50;;;4.53;;
20417;SDS011;10368;51.436;6.774;2023-09-30T12:58:11;8.57;;;3.67;;
20417;SDS011;10368;51.436;6.774;2023-09-30T13:00:38;5.30;;;3.20;;
20417;SDS011;10368;51.436;6.774;2023-09-30T13:03:05;4.00;;;2.65;;
20417;SDS011;10368;51.436;6.774;2023-09-30T13:05:34;4.15;;;2.75;;
20417;SDS011;10368;51.436;6.774;2023-09-30T13:08:01;4.18;;;2.60;;
20417;SDS011;10368;51.436;6.774;2023-09-30T13:10:28;4.60;;;2.83;;
20417;SDS011;10368;51.436;6.774;2023-09-30T13:12:56;4.82;;;2.45;;
20417;SDS011;10368;51.436;6.774;2023-09-30T13:15:24;5.18;;;2.72;;
20417;SDS011;10368;51.436;6.774;2023-09-30T13:17:52;6.90;;;2.90;;
20417;SDS011;10368;51.436;6.774;2023-09-30T13:20:20;5.53;;;3.50;;
20417;SDS011;10368;51.436;6.774;2023-09-30T13:22:47;5.47;;;2.70;;
20417;SDS011;10368;51.436;6.774;2023-09-30T13:25:15;6.40;;;3.20;;
20417;SDS011;10368;51.436;6.774;2023-09-30T13:27:42;6.65;;;2.83;;
20417;SDS011;10368;51.436;6.774;2023-09-30T13:30:10;3.67;;;2.85;;
20417;SDS011;10368;51.436;6.774;2023-09-30T13:32:37;4.22;;;3.03;;
20417;SDS011;10368;51.436;6.774;2023-09-30T13:35:05;4.13;;;2.63;;
20417;SDS011;10368;51.436;6.774;2023-09-30T13:37:33;6.45;;;3.75;;
20417;SDS011;10368;51.436;6.774;2023-09-30T13:40:01;6.13;;;3.08;;
20417;SDS011;10368;51.436;6.774;2023-09-30T13:42:30;6.97;;;2.90;;
20417;SDS011;10368;51.436;6.774;2023-09-30T13:44:57;5.72;;;2.88;;
20417;SDS011;10368;51.436;6.774;2023-09-30T13:47:25;5.22;;;2.72;;
20417;SDS011;10368;51.436;6.774;2023-09-30T13:49:52;5.03;;;3.40;;
20417;SDS011;10368;51.436;6.774;2023-09-30T13:52:21;4.13;;;3.10;;
20417;SDS011;10368;51.436;6.774;2023-09-30T13:54:48;4.72;;;3.38;;
20417;SDS011;10368;51.436;6.774;2023-09-30T13:57:15;5.63;;;3.42;;
20417;SDS011;10368;51.436;6.774;2023-09-30T13:59:43;7.70;;;3.42;;
20417;SDS011;10368;51.436;6.774;2023-09-30T14:02:10;5.40;;;3.35;;
20417;SDS011;10368;51.436;6.774;2023-09-30T14:04:38;5.00;;;3.20;;
20417;SDS011;10368;51.436;6.774;2023-09-30T14:07:06;7.07;;;4.90;;
20417;SDS011;10368;51.436;6.774;2023-09-30T14:09:34;3.80;;;2.72;;
20417;SDS011;10368;51.436;6.774;2023-09-30T14:12:02;5.30;;;2.90;;
20417;SDS011;10368;51.436;6.774;2023-09-30T14:14:33;5.97;;;3.13;;
20417;SDS011;10368;51.436;6.774;2023-09-30T14:17:01;6.30;;;3.85;;
20417;SDS011;10368;51.436;6.774;2023-09-30T14:19:34;5.28;;;3.88;;
20417;SDS011;10368;51.436;6.774;2023-09-30T14:22:01;5.15;;;4.32;;
20417;SDS011;10368;51.436;6.774;2023-09-30T14:24:31;4.25;;;3.53;;
20417;SDS011;10368;51.436;6.774;2023-09-30T14:27:02;4.95;;;3.78;;
20417;SDS011;10368;51.436;6.774;2023-09-30T14:29:30;5.22;;;3.42;;
20417;SDS011;10368;51.436;6.774;2023-09-30T14:31:58;5.35;;;4.47;;
20417;SDS011;10368;51.436;6.774;2023-09-30T14:34:25;4.75;;;4.22;;
20417;SDS011;10368;51.436;6.774;2023-09-30T14:36:53;6.28;;;4.07;;
20417;SDS011;10368;51.436;6.774;2023-09-30T14:39:21;5.57;;;3.63;;
20417;SDS011;10368;51.436;6.774;2023-09-30T14:41:49;4.18;;;3.75;;
20417;SDS011;10368;51.436;6.774;2023-09-30T14:44:16;4.35;;;3.15;;
20417;SDS011;10368;51.436;6.774;2023-09-30T14:46:43;5.40;;;3.40;;
20417;SDS011;10368;51.436;6.774;2023-09-30T14:49:11;7.43;;;4.60;;
20417;SDS011;10368;51.436;6.774;2023-09-30T14:51:38;4.63;;;4.07;;
20417;SDS011;10368;51.436;6.774;2023-09-30T14:54:06;8.18;;;5.07;;
20417;SDS011;10368;51.436;6.774;2023-09-30T14:56:33;4.28;;;3.47;;
20417;SDS011;10368;51.436;6.774;2023-09-30T14:59:00;3.88;;;3.22;;
20417;SDS011;10368;51.436;6.774;2023-09-30T15:01:29;6.40;;;3.72;;
20417;SDS011;10368;51.436;6.774;2023-09-30T15:03:56;7.72;;;4.38;;